Time;durP1;ratioP1;P1;durP2;ratioP2;P2;SDS_P1;SDS_P2;PMS_P1;PMS_P2;Temp;Humidity;BMP_temperature;BMP_pressure;BME280_temperature;BME280_humidity;BME280_pressure;Samples;Min_cycle;Max_cycle;Signal;HPM_P1;HPM_P2
2024/01/23 00:00:37;;;;;;;41.70;19.60;;;;;;;-128.00;-1.00;-1.00;100940;1286;1004559;-31
2024/01/23 00:03:03;;;;;;;;;;;;;;;-128.00;-1.00;-1.00;101025;1283;1002897;-32
2024/01/23 00:05:28;;;;;;;38.90;18.10;;;;;;;-128.00;-1.00;-1.00;100898;1284;1004224;-31
2024/01/23 00:07:54;;;;;;;40.00;19.40;;;;;;;-128.00;-1.00;-1.00;100758;1282;1003496;-33
2024/01/23 00:10:22;;;;;;;37.60;17.90;;;;;;;-128.00;-1.00;-1.00;100923;1282;1003244;-35
2024/01/23 00:12:48;;;;;;;37.00;18.10;;;;;;;-128.00;-1.00;-1.00;100992;1286;1002562;-31
2024/01/23 00:15:14;;;;;;;37.10;17.90;;;;;;;-128.00;-1.00;-1.00;100736;1288;1002826;-33
2024/01/23 00:17:41;;;;;;;36.10;16.20;;;;;;;-128.00;-1.00;-1.00;101064;1286;1003954;-33
2024/01/23 00:20:07;;;;;;;34.00;18.10;;;;;;;-128.00;-1.00;-1.00;100910;1283;1002386;-31
2024/01/23 00:22:33;;;;;;;37.90;18.80;;;;;;;-128.00;-1.00;-1.00;100924;1284;1004746;-31
2024/01/23 00:24:59;;;;;;;38.70;17.90;;;;;;;-128.00;-1.00;-1.00;100982;1282;1002610;-31
2024/01/23 00:27:25;;;;;;;29.90;16.80;;;;;;;-128.00;-1.00;-1.00;100937;1286;1002173;-31
2024/01/23 00:29:51;;;;;;;;;;;;;;;-128.00;-1.00;-1.00;100967;1286;1002755;-36
2024/01/23 00:32:16;;;;;;;32.20;16.80;;;;;;;-128.00;-1.00;-1.00;101024;1286;1003241;-31
2024/01/23 00:34:42;;;;;;;34.60;16.40;;;;;;;-128.00;-1.00;-1.00;100996;1282;1002585;-31
2024/01/23 00:37:09;;;;;;;;;;;;;;;-128.00;-1.00;-1.00;101101;1282;1002813;-30
2024/01/23 00:39:38;;;;;;;30.20;15.20;;;;;;;-128.00;-1.00;-1.00;101031;1282;1002901;-33
2024/01/23 00:42:07;;;;;;;34.30;16.70;;;;;;;-128.00;-1.00;-1.00;101012;1288;1013619;-33
2024/01/23 00:44:33;;;;;;;29.00;16.40;;;;;;;-128.00;-1.00;-1.00;100878;1284;1012467;-30
2024/01/23 00:46:59;;;;;;;30.40;16.00;;;;;;;-128.00;-1.00;-1.00;100956;1285;1002984;-31
2024/01/23 00:49:24;;;;;;;34.80;16.60;;;;;;;-128.00;-1.00;-1.00;100932;1282;1003509;-32
2024/01/23 00:51:50;;;;;;;29.80;14.40;;;;;;;-128.00;-1.00;-1.00;100958;1282;1003477;-30
2024/01/23 00:54:15;;;;;;;33.30;16.40;;;;;;;-128.00;-1.00;-1.00;101005;1282;1003219;-32
2024/01/23 00:56:44;;;;;;;29.50;15.80;;;;;;;-128.00;-1.00;-1.00;100951;1286;1002556;-31
2024/01/23 00:59:11;;;;;;;27.80;14.70;;;;;;;-128.00;-1.00;-1.00;101031;1287;1013440;-32
2024/01/23 01:01:37;;;;;;;26.80;15.10;;;;;;;-128.00;-1.00;-1.00;101026;1282;1002322;-30
2024/01/23 01:04:03;;;;;;;36.90;17.40;;;;;;;-128.00;-1.00;-1.00;101046;1282;1002801;-31
2024/01/23 01:06:29;;;;;;;31.60;15.50;;;;;;;-128.00;-1.00;-1.00;100904;1286;1002758;-31
2024/01/23 01:08:55;;;;;;;;;;;;;;;-128.00;-1.00;-1.00;101000;1283;1003452;-44
2024/01/23 01:11:20;;;;;;;32.80;15.40;;;;;;;-128.00;-1.00;-1.00;100969;1286;1002751;-30
2024/01/23 01:13:46;;;;;;;26.40;14.60;;;;;;;-128.00;-1.00;-1.00;100987;1282;1002709;-31
2024/01/23 01:16:12;;;;;;;27.40;14.60;;;;;;;-128.00;-1.00;-1.00;100958;1283;1003138;-29
2024/01/23 01:18:40;;;;;;;28.90;16.20;;;;;;;-128.00;-1.00;-1.00;101000;1283;1002975;-29
2024/01/23 01:21:07;;;;;;;25.50;13.90;;;;;;;-128.00;-1.00;-1.00;100976;1287;1004430;-30
2024/01/23 01:23:34;;;;;;;26.50;14.40;;;;;;;-128.00;-1.00;-1.00;100946;1282;1002168;-29
2024/01/23 01:26:00;;;;;;;24.50;13.30;;;;;;;-128.00;-1.00;-1.00;100979;1286;1002649;-29
2024/01/23 01:28:27;;;;;;;30.50;14.70;;;;;;;-128.00;-1.00;-1.00;100971;1287;1003236;-29
2024/01/23 01:30:52;;;;;;;;;;;;;;;-128.00;-1.00;-1.00;100928;1282;1004055;-30
2024/01/23 01:33:19;;;;;;;20.90;12.50;;;;;;;-128.00;-1.00;-1.00;100954;1282;1002745;-30
2024/01/23 01:35:44;;;;;;;27.70;15.60;;;;;;;-128.00;-1.00;-1.00;100960;1282;1004180;-31
2024/01/23 01:38:10;;;;;;;22.20;12.50;;;;;;;-128.00;-1.00;-1.00;101047;1282;1002430;-31
2024/01/23 01:40:36;;;;;;;26.00;14.30;;;;;;;-128.00;-1.00;-1.00;100955;1286;1003017;-32
2024/01/23 01:43:01;;;;;;;22.00;12.50;;;;;;;-128.00;-1.00;-1.00;100996;1286;1002248;-33
2024/01/23 01:45:27;;;;;;;22.40;11.70;;;;;;;-128.00;-1.00;-1.00;100897;1282;1004074;-32
2024/01/23 01:47:53;;;;;;;23.20;12.90;;;;;;;-128.00;-1.00;-1.00;100932;1286;1002517;-34
2024/01/23 01:50:19;;;;;;;25.20;13.10;;;;;;;-128.00;-1.00;-1.00;100992;1282;1004266;-30
2024/01/23 02:33:10;;;;;;;15.60;9.40;;;;;;;1.56;100.00;99352.16;103750;1285;612634;-32
2024/01/23 02:35:37;;;;;;;18.90;11.10;;;;;;;2.11;100.00;99345.59;103606;1285;213368;-32
2024/01/23 02:38:03;;;;;;;19.40;11.10;;;;;;;2.13;100.00;99346.22;103684;1283;59356;-31
2024/01/23 02:40:29;;;;;;;19.20;11.10;;;;;;;2.05;100.00;99347.59;103767;1285;59342;-30
2024/01/23 02:42:54;;;;;;;23.20;12.10;;;;;;;2.03;100.00;99343.30;103246;1286;1002452;-30
2024/01/23 02:45:20;;;;;;;21.00;12.00;;;;;;;2.02;100.00;99343.27;103894;1285;59365;-34
2024/01/23 02:47:46;;;;;;;18.40;10.40;;;;;;;-102.00;19.20;19868.27;101086;1285;1003162;-29
2024/01/23 02:50:12;;;;;;;17.50;10.10;;;;;;;-128.00;-1.00;-1.00;100305;1283;1003276;-29
2024/01/23 02:52:38;;;;;;;16.30;10.00;;;;;;;-128.00;-1.00;-1.00;100349;1285;1045471;-31
2024/01/23 02:55:04;;;;;;;16.80;9.60;;;;;;;-128.00;-1.00;-1.00;99548;1284;1002979;-30
2024/01/23 02:57:29;;;;;;;;;;;;;;;-128.00;-1.00;-1.00;100249;1284;1058231;-32
2024/01/23 02:59:55;;;;;;;14.70;9.10;;;;;;;-128.00;-1.00;-1.00;100362;1283;1004349;-30
2024/01/23 03:02:21;;;;;;;16.30;9.80;;;;;;;-128.00;-1.00;-1.00;100245;1287;1045465;-31
2024/01/23 03:04:47;;;;;;;19.20;10.40;;;;;;;-128.00;-1.00;-1.00;100342;1285;1003789;-31
2024/01/23 03:07:13;;;;;;;17.60;10.30;;;;;;;-128.00;-1.00;-1.00;100429;1286;1003278;-32
2024/01/23 03:09:39;;;;;;;18.80;10.50;;;;;;;-128.00;-1.00;-1.00;100393;1283;1003189;-33
2024/01/23 03:12:17;;;;;;;16.40;9.80;;;;;;;-128.00;-1.00;-1.00;100370;1285;1038620;-32
2024/01/23 03:14:43;;;;;;;15.40;9.90;;;;;;;-128.00;-1.00;-1.00;100305;1283;1045269;-33
2024/01/23 03:17:10;;;;;;;22.50;12.00;;;;;;;-128.00;-1.00;-1.00;100316;1285;1003254;-31
2024/01/23 03:19:36;;;;;;;17.00;10.20;;;;;;;-128.00;-1.00;-1.00;100316;1282;1003312;-32
2024/01/23 03:22:03;;;;;;;16.90;9.50;;;;;;;-128.00;-1.00;-1.00;100454;1285;1004663;-30
2024/01/23 03:24:29;;;;;;;15.30;9.60;;;;;;;-128.00;-1.00;-1.00;100255;1285;1002805;-31
2024/01/23 03:26:55;;;;;;;14.90;8.70;;;;;;;-128.00;-1.00;-1.00;100341;1286;1003661;-33
2024/01/23 03:29:21;;;;;;;16.80;10.20;;;;;;;-128.00;-1.00;-1.00;100315;1283;1003798;-32
2024/01/23 03:31:49;;;;;;;16.10;9.50;;;;;;;-128.00;-1.00;-1.00;100314;1285;1003666;-31
2024/01/23 03:34:15;;;;;;;18.80;9.90;;;;;;;-128.00;-1.00;-1.00;100318;1283;1003190;-33
2024/01/23 03:36:40;;;;;;;16.40;9.20;;;;;;;-128.00;-1.00;-1.00;100359;1284;1004995;-32
2024/01/23 03:39:06;;;;;;;15.00;9.60;;;;;;;-128.00;-1.00;-1.00;100399;1283;1003640;-31
2024/01/23 03:41:31;;;;;;;14.50;9.80;;;;;;;-128.00;-1.00;-1.00;100356;1283;1004231;-33
2024/01/23 03:43:57;;;;;;;14.00;9.90;;;;;;;-128.00;-1.00;-1.00;100293;1283;1003392;-33
2024/01/23 03:46:23;;;;;;;17.20;10.20;;;;;;;-128.00;-1.00;-1.00;100216;1285;1058302;-33
2024/01/23 03:48:48;;;;;;;14.60;9.20;;;;;;;-128.00;-1.00;-1.00;100290;1282;1002851;-33
2024/01/23 03:51:14;;;;;;;15.40;8.70;;;;;;;-128.00;-1.00;-1.00;100268;1286;1044536;-33
2024/01/23 03:53:40;;;;;;;14.10;9.00;;;;;;;-128.00;-1.00;-1.00;100281;1285;1002882;-33
2024/01/23 03:56:06;;;;;;;17.30;9.60;;;;;;;-128.00;-1.00;-1.00;100324;1285;1003093;-33
2024/01/23 03:58:31;;;;;;;16.40;8.90;;;;;;;-128.00;-1.00;-1.00;100267;1284;1013611;-31
2024/01/23 04:00:59;;;;;;;13.10;7.80;;;;;;;-128.00;-1.00;-1.00;100364;1295;1002825;-32
2024/01/23 04:03:25;;;;;;;14.00;9.00;;;;;;;-128.00;-1.00;-1.00;100267;1284;1003222;-33
2024/01/23 04:05:51;;;;;;;13.70;9.20;;;;;;;-128.00;-1.00;-1.00;100377;1285;1002683;-30
2024/01/23 04:08:16;;;;;;;15.60;8.90;;;;;;;-128.00;-1.00;-1.00;100383;1283;1003620;-30
2024/01/23 04:10:42;;;;;;;15.80;9.20;;;;;;;-128.00;-1.00;-1.00;100286;1283;1002673;-33
2024/01/23 04:13:07;;;;;;;15.20;9.00;;;;;;;-128.00;-1.00;-1.00;100373;1285;1003106;-29
2024/01/23 04:15:33;;;;;;;;;;;;;;;-128.00;-1.00;-1.00;100359;1286;1058805;-31
2024/01/23 04:17:59;;;;;;;15.10;8.30;;;;;;;-128.00;-1.00;-1.00;100243;1284;1003030;-30
2024/01/23 04:20:24;;;;;;;15.00;8.80;;;;;;;-128.00;-1.00;-1.00;100344;1283;1013493;-29
2024/01/23 04:22:50;;;;;;;14.10;8.20;;;;;;;-128.00;-1.00;-1.00;100424;1285;1003099;-31
2024/01/23 04:25:16;;;;;;;13.00;8.00;;;;;;;-128.00;-1.00;-1.00;100322;1285;1003486;-34
2024/01/23 04:27:41;;;;;;;18.70;10.10;;;;;;;-128.00;-1.00;-1.00;100321;1283;1003374;-31
2024/01/23 04:30:08;;;;;;;19.40;10.30;;;;;;;-128.00;-1.00;-1.00;100340;1285;1002891;-32
2024/01/23 04:32:33;;;;;;;20.40;10.90;;;;;;;-128.00;-1.00;-1.00;100404;1284;1038741;-31
2024/01/23 04:34:59;;;;;;;18.80;11.10;;;;;;;-128.00;-1.00;-1.00;100338;1283;1004209;-31
2024/01/23 04:37:24;;;;;;;15.90;9.90;;;;;;;-128.00;-1.00;-1.00;100391;1288;1003323;-32
2024/01/23 04:39:50;;;;;;;15.30;8.60;;;;;;;-128.00;-1.00;-1.00;100347;1282;1058528;-31
2024/01/23 04:42:16;;;;;;;18.30;9.10;;;;;;;-128.00;-1.00;-1.00;100269;1286;1003684;-32
2024/01/23 04:44:41;;;;;;;14.80;8.50;;;;;;;-128.00;-1.00;-1.00;100355;1283;1004251;-30
2024/01/23 04:47:07;;;;;;;13.50;8.40;;;;;;;-128.00;-1.00;-1.00;100388;1284;1003331;-31
2024/01/23 04:49:33;;;;;;;15.60;8.80;;;;;;;-128.00;-1.00;-1.00;100376;1283;1003482;-31
2024/01/23 04:51:59;;;;;;;16.40;9.10;;;;;;;-128.00;-1.00;-1.00;100276;1285;1004089;-29
2024/01/23 04:54:25;;;;;;;12.80;8.00;;;;;;;-128.00;-1.00;-1.00;100384;1285;1002936;-30
2024/01/23 04:56:50;;;;;;;13.10;8.30;;;;;;;-128.00;-1.00;-1.00;100295;1285;1003877;-32
2024/01/23 04:59:16;;;;;;;17.00;9.00;;;;;;;-128.00;-1.00;-1.00;100368;1285;1004216;-31
2024/01/23 05:01:41;;;;;;;14.70;8.20;;;;;;;-128.00;-1.00;-1.00;100267;1282;1057637;-33
2024/01/23 05:04:07;;;;;;;18.00;9.10;;;;;;;-128.00;-1.00;-1.00;100277;1283;1002738;-35
2024/01/23 05:06:33;;;;;;;16.60;9.10;;;;;;;-128.00;-1.00;-1.00;100400;1286;1045862;-30
2024/01/23 05:08:58;;;;;;;17.30;8.60;;;;;;;-128.00;-1.00;-1.00;100255;1285;1002549;-30
2024/01/23 05:11:24;;;;;;;16.30;8.60;;;;;;;-128.00;-1.00;-1.00;100285;1282;1003321;-31
2024/01/23 05:13:50;;;;;;;16.70;9.30;;;;;;;-128.00;-1.00;-1.00;100214;1282;1012794;-30
2024/01/23 05:16:15;;;;;;;15.30;8.10;;;;;;;-128.00;-1.00;-1.00;100377;1285;1003307;-31
2024/01/23 05:18:41;;;;;;;13.60;8.30;;;;;;;-128.00;-1.00;-1.00;100280;1282;1058855;-30
2024/01/23 05:21:07;;;;;;;;;;;;;;;-128.00;-1.00;-1.00;100374;1286;1003551;-30
2024/01/23 05:23:32;;;;;;;14.60;8.30;;;;;;;-128.00;-1.00;-1.00;100262;1285;1002769;-30
2024/01/23 05:25:58;;;;;;;14.90;8.10;;;;;;;-128.00;-1.00;-1.00;100227;1282;1003407;-32
2024/01/23 05:28:24;;;;;;;18.60;9.50;;;;;;;-128.00;-1.00;-1.00;100414;1286;1003351;-32
2024/01/23 05:30:49;;;;;;;17.50;9.00;;;;;;;-128.00;-1.00;-1.00;100291;1287;1003601;-30
2024/01/23 05:33:15;;;;;;;16.80;9.60;;;;;;;-128.00;-1.00;-1.00;100231;1282;1058156;-30
2024/01/23 05:35:41;;;;;;;12.60;7.40;;;;;;;-128.00;-1.00;-1.00;100209;1283;1003008;-32
2024/01/23 05:38:06;;;;;;;;;;;;;;;-128.00;-1.00;-1.00;100315;1283;1045782;-34
2024/01/23 05:40:32;;;;;;;15.70;8.90;;;;;;;-128.00;-1.00;-1.00;100299;1285;1003211;-30
2024/01/23 05:42:58;;;;;;;;;;;;;;;-128.00;-1.00;-1.00;100419;1283;1003547;-34
2024/01/23 05:45:24;;;;;;;14.80;8.70;;;;;;;-128.00;-1.00;-1.00;100356;1285;1004582;-31
2024/01/23 05:47:49;;;;;;;14.00;6.50;;;;;;;-128.00;-1.00;-1.00;100365;1283;1003140;-31
2024/01/23 05:50:15;;;;;;;16.90;9.60;;;;;;;-128.00;-1.00;-1.00;100473;1281;1002467;-30
2024/01/23 05:52:41;;;;;;;;;;;;;;;-128.00;-1.00;-1.00;100366;1288;1054255;-32
2024/01/23 05:55:07;;;;;;;21.00;9.10;;;;;;;-128.00;-1.00;-1.00;100297;1285;1003131;-32
2024/01/23 05:57:33;;;;;;;16.80;8.60;;;;;;;-128.00;-1.00;-1.00;100291;1285;1002830;-30
2024/01/23 06:00:03;;;;;;;12.50;7.40;;;;;;;-128.00;-1.00;-1.00;100374;1285;1003442;-32
2024/01/23 06:02:29;;;;;;;18.60;7.50;;;;;;;-128.00;-1.00;-1.00;100321;1283;1058329;-30
2024/01/23 06:04:54;;;;;;;13.70;7.60;;;;;;;-128.00;-1.00;-1.00;100339;1283;1004626;-31
2024/01/23 06:07:20;;;;;;;15.10;7.50;;;;;;;-128.00;-1.00;-1.00;100404;1283;1003625;-31
2024/01/23 06:09:45;;;;;;;16.30;8.50;;;;;;;-128.00;-1.00;-1.00;100502;1283;1004060;-36
2024/01/23 06:12:11;;;;;;;17.70;9.00;;;;;;;-128.00;-1.00;-1.00;100310;1282;1003000;-33
2024/01/23 06:14:36;;;;;;;16.40;8.80;;;;;;;-128.00;-1.00;-1.00;100288;1283;1002689;-31
2024/01/23 06:17:03;;;;;;;16.30;8.80;;;;;;;-128.00;-1.00;-1.00;100398;1285;1012965;-29
2024/01/23 06:19:28;;;;;;;16.30;8.10;;;;;;;-128.00;-1.00;-1.00;100348;1285;1003843;-30
2024/01/23 06:21:54;;;;;;;14.60;8.70;;;;;;;-128.00;-1.00;-1.00;100310;1283;1003461;-31
2024/01/23 06:24:20;;;;;;;;;;;;;;;-128.00;-1.00;-1.00;100415;1285;1054145;-30
2024/01/23 06:26:45;;;;;;;18.00;8.70;;;;;;;-128.00;-1.00;-1.00;100299;1286;1003051;-31
2024/01/23 06:29:11;;;;;;;17.20;8.50;;;;;;;-128.00;-1.00;-1.00;100239;1290;1003100;-30
2024/01/23 06:31:37;;;;;;;15.90;8.70;;;;;;;-128.00;-1.00;-1.00;100365;1285;1003419;-31
2024/01/23 06:34:05;;;;;;;18.20;9.80;;;;;;;-128.00;-1.00;-1.00;100318;1285;1003086;-31
2024/01/23 06:36:31;;;;;;;17.30;9.40;;;;;;;-128.00;-1.00;-1.00;100291;1283;1003113;-33
2024/01/23 06:38:57;;;;;;;16.70;8.80;;;;;;;-128.00;-1.00;-1.00;100353;1285;1003495;-32
2024/01/23 06:41:23;;;;;;;20.40;8.90;;;;;;;-128.00;-1.00;-1.00;100328;1286;1003339;-29
2024/01/23 06:43:49;;;;;;;22.70;9.20;;;;;;;-128.00;-1.00;-1.00;100297;1282;1045878;-31
2024/01/23 06:46:15;;;;;;;16.90;8.60;;;;;;;-128.00;-1.00;-1.00;100247;1283;1003389;-31
2024/01/23 06:48:40;;;;;;;19.00;8.10;;;;;;;-128.00;-1.00;-1.00;100314;1283;1004205;-34
2024/01/23 06:51:06;;;;;;;17.70;8.50;;;;;;;-128.00;-1.00;-1.00;100365;1283;1003659;-32
2024/01/23 06:53:32;;;;;;;13.90;7.20;;;;;;;-128.00;-1.00;-1.00;100298;1282;1002975;-30
2024/01/23 06:55:57;;;;;;;14.20;8.00;;;;;;;-128.00;-1.00;-1.00;100324;1285;1003889;-30
2024/01/23 06:58:23;;;;;;;19.90;9.30;;;;;;;-128.00;-1.00;-1.00;100340;1283;1003159;-32
2024/01/23 07:00:48;;;;;;;16.80;8.80;;;;;;;-128.00;-1.00;-1.00;100246;1286;1003876;-30
2024/01/23 07:03:14;;;;;;;15.00;8.00;;;;;;;-128.00;-1.00;-1.00;100235;1282;1002979;-30
2024/01/23 07:05:40;;;;;;;17.80;8.90;;;;;;;-128.00;-1.00;-1.00;100265;1285;1044700;-32
2024/01/23 07:08:06;;;;;;;20.60;9.30;;;;;;;-128.00;-1.00;-1.00;100379;1282;1002715;-32
2024/01/23 07:10:31;;;;;;;21.70;12.00;;;;;;;-128.00;-1.00;-1.00;100293;1283;1057987;-30
2024/01/23 07:12:57;;;;;;;24.20;11.20;;;;;;;-128.00;-1.00;-1.00;100339;1285;1003168;-31
2024/01/23 07:15:22;;;;;;;18.60;9.30;;;;;;;-128.00;-1.00;-1.00;100389;1285;1003406;-32
2024/01/23 07:17:48;;;;;;;22.90;11.70;;;;;;;-128.00;-1.00;-1.00;100207;1283;1003516;-31
2024/01/23 07:20:14;;;;;;;42.40;19.40;;;;;;;-128.00;-1.00;-1.00;100309;1286;1004026;-30
2024/01/23 07:22:39;;;;;;;29.00;15.10;;;;;;;-128.00;-1.00;-1.00;100348;1283;1013346;-33
2024/01/23 07:25:05;;;;;;;25.70;12.60;;;;;;;-128.00;-1.00;-1.00;100303;1285;1003092;-30
2024/01/23 07:27:31;;;;;;;30.60;15.90;;;;;;;-128.00;-1.00;-1.00;100304;1282;1002814;-31
2024/01/23 07:29:56;;;;;;;27.00;14.00;;;;;;;-128.00;-1.00;-1.00;100398;1283;1055146;-31
2024/01/23 07:32:22;;;;;;;21.10;10.90;;;;;;;-128.00;-1.00;-1.00;100297;1285;1003230;-32
2024/01/23 07:34:48;;;;;;;19.60;9.20;;;;;;;-128.00;-1.00;-1.00;100358;1283;1003182;-36
2024/01/23 07:37:14;;;;;;;24.80;10.20;;;;;;;-128.00;-1.00;-1.00;100396;1283;1049038;-32
2024/01/23 07:39:39;;;;;;;;;;;;;;;-128.00;-1.00;-1.00;100461;1283;1003492;-31
2024/01/23 07:42:05;;;;;;;13.80;7.60;;;;;;;-128.00;-1.00;-1.00;100370;1283;1003576;-30
2024/01/23 07:44:39;;;;;;;16.70;7.40;;;;;;;-128.00;-1.00;-1.00;100256;1282;1013529;-32
2024/01/23 07:47:07;;;;;;;12.00;6.10;;;;;;;-128.00;-1.00;-1.00;100358;1283;1037919;-31
2024/01/23 07:49:33;;;;;;;13.70;6.90;;;;;;;-128.00;-1.00;-1.00;100337;1283;1046073;-30
2024/01/23 07:51:58;;;;;;;13.30;6.80;;;;;;;-128.00;-1.00;-1.00;100297;1283;1004030;-31
2024/01/23 07:54:24;;;;;;;15.20;6.30;;;;;;;-128.00;-1.00;-1.00;100312;1283;1058036;-33
2024/01/23 07:56:50;;;;;;;9.70;5.00;;;;;;;-128.00;-1.00;-1.00;100280;1283;1003608;-31
2024/01/23 07:59:16;;;;;;;;;;;;;;;-128.00;-1.00;-1.00;100408;1283;1045322;-28
2024/01/23 08:01:42;;;;;;;12.90;6.60;;;;;;;-128.00;-1.00;-1.00;100378;1284;1003884;-32
2024/01/23 08:04:08;;;;;;;11.00;5.50;;;;;;;-128.00;-1.00;-1.00;100253;1285;1003216;-31
2024/01/23 08:06:33;;;;;;;14.50;4.50;;;;;;;-128.00;-1.00;-1.00;100444;1283;1003538;-31
2024/01/23 08:08:59;;;;;;;5.80;3.30;;;;;;;-128.00;-1.00;-1.00;100229;1285;1004466;-30
2024/01/23 08:11:25;;;;;;;13.90;4.60;;;;;;;-128.00;-1.00;-1.00;100285;1281;1003338;-31
2024/01/23 08:13:51;;;;;;;8.60;2.60;;;;;;;-128.00;-1.00;-1.00;100182;1283;1003048;-30
2024/01/23 08:16:17;;;;;;;14.50;2.00;;;;;;;-128.00;-1.00;-1.00;100259;1282;1003513;-31
2024/01/23 08:18:42;;;;;;;5.30;2.40;;;;;;;-128.00;-1.00;-1.00;100303;1282;1012290;-29
2024/01/23 08:21:09;;;;;;;6.00;1.50;;;;;;;-128.00;-1.00;-1.00;100337;1283;1004877;-29
2024/01/23 08:23:36;;;;;;;5.70;1.60;;;;;;;-128.00;-1.00;-1.00;100303;1281;1004062;-30
2024/01/23 08:26:03;;;;;;;7.00;1.50;;;;;;;-128.00;-1.00;-1.00;100349;1282;1003075;-33
2024/01/23 08:28:29;;;;;;;10.70;2.00;;;;;;;-128.00;-1.00;-1.00;100346;1283;1003378;-32
2024/01/23 08:30:54;;;;;;;9.90;4.40;;;;;;;-128.00;-1.00;-1.00;100328;1283;1003190;-31
2024/01/23 08:33:22;;;;;;;5.90;2.00;;;;;;;-128.00;-1.00;-1.00;100319;1283;1003725;-33
2024/01/23 08:35:48;;;;;;;9.10;3.40;;;;;;;-128.00;-1.00;-1.00;100278;1283;1045277;-33
2024/01/23 08:38:14;;;;;;;7.50;4.40;;;;;;;-128.00;-1.00;-1.00;100307;1283;1002778;-31
2024/01/23 08:40:41;;;;;;;11.30;6.50;;;;;;;-128.00;-1.00;-1.00;100320;1283;1059565;-31
2024/01/23 08:43:07;;;;;;;8.70;4.00;;;;;;;-128.00;-1.00;-1.00;100286;1282;1003294;-31
2024/01/23 08:45:33;;;;;;;15.90;4.80;;;;;;;-128.00;-1.00;-1.00;100295;1283;1002607;-33
2024/01/23 08:47:58;;;;;;;3.20;2.00;;;;;;;-128.00;-1.00;-1.00;100339;1282;1003586;-31
2024/01/23 08:50:24;;;;;;;9.70;2.30;;;;;;;-128.00;-1.00;-1.00;100257;1283;1056540;-31
2024/01/23 08:52:50;;;;;;;3.80;2.00;;;;;;;-128.00;-1.00;-1.00;100278;1283;1002855;-34
2024/01/23 08:55:15;;;;;;;5.50;2.00;;;;;;;-128.00;-1.00;-1.00;100349;1283;1003702;-32
2024/01/23 08:57:43;;;;;;;6.00;2.60;;;;;;;-128.00;-1.00;-1.00;100322;1284;1003813;-31
2024/01/23 09:00:09;;;;;;;6.70;3.10;;;;;;;-128.00;-1.00;-1.00;100260;1283;1003886;-31
2024/01/23 09:02:37;;;;;;;3.90;2.80;;;;;;;-128.00;-1.00;-1.00;100334;1282;1003000;-31
2024/01/23 09:05:04;;;;;;;8.50;4.60;;;;;;;-128.00;-1.00;-1.00;100232;1282;1004721;-29
2024/01/23 09:07:30;;;;;;;7.90;4.00;;;;;;;-128.00;-1.00;-1.00;100289;1282;1003912;-31
2024/01/23 09:09:55;;;;;;;11.20;3.80;;;;;;;-128.00;-1.00;-1.00;100317;1283;1003358;-32
2024/01/23 09:12:21;;;;;;;10.60;6.30;;;;;;;-128.00;-1.00;-1.00;100264;1283;1002643;-31
2024/01/23 09:14:47;;;;;;;7.80;2.60;;;;;;;-128.00;-1.00;-1.00;100343;1283;1003053;-30
2024/01/23 09:17:13;;;;;;;16.60;5.60;;;;;;;-128.00;-1.00;-1.00;100373;1283;1003670;-33
2024/01/23 09:19:39;;;;;;;7.40;4.50;;;;;;;-128.00;-1.00;-1.00;100221;1283;1003334;-32
2024/01/23 09:22:06;;;;;;;20.50;9.00;;;;;;;-128.00;-1.00;-1.00;100332;1283;1046199;-31
2024/01/23 09:24:32;;;;;;;7.60;2.80;;;;;;;-128.00;-1.00;-1.00;100364;1283;1003492;-30
2024/01/23 09:27:03;;;;;;;9.70;4.40;;;;;;;-128.00;-1.00;-1.00;100412;1282;1002922;-31
2024/01/23 09:29:30;;;;;;;11.10;3.10;;;;;;;-128.00;-1.00;-1.00;100309;1282;1058746;-30
2024/01/23 09:31:56;;;;;;;5.40;1.60;;;;;;;-128.00;-1.00;-1.00;100267;1283;1002895;-31
2024/01/23 09:34:21;;;;;;;6.70;2.30;;;;;;;-128.00;-1.00;-1.00;100248;1282;1003089;-34
2024/01/23 09:36:47;;;;;;;3.50;1.40;;;;;;;-128.00;-1.00;-1.00;100372;1285;1002882;-32
2024/01/23 09:39:13;;;;;;;5.50;1.80;;;;;;;-128.00;-1.00;-1.00;100401;1283;1055664;-31
2024/01/23 09:41:49;;;;;;;9.20;2.10;;;;;;;-128.00;-1.00;-1.00;100237;1285;1004397;-31
2024/01/23 09:44:15;;;;;;;7.40;2.30;;;;;;;-128.00;-1.00;-1.00;100241;1282;1012137;-32
2024/01/23 09:46:42;;;;;;;8.60;2.50;;;;;;;-128.00;-1.00;-1.00;100357;1285;1004275;-30
2024/01/23 09:49:08;;;;;;;7.70;2.40;;;;;;;-128.00;-1.00;-1.00;100383;1283;1002965;-31
2024/01/23 09:51:34;;;;;;;8.90;2.80;;;;;;;-128.00;-1.00;-1.00;100363;1283;1003011;-34
2024/01/23 09:54:00;;;;;;;17.40;7.40;;;;;;;-128.00;-1.00;-1.00;100370;1282;1002603;-31
2024/01/23 09:56:26;;;;;;;39.70;16.40;;;;;;;-128.00;-1.00;-1.00;100305;1283;1002591;-33
2024/01/23 09:58:52;;;;;;;11.50;5.00;;;;;;;-128.00;-1.00;-1.00;100248;1282;1003119;-33
2024/01/23 10:01:19;;;;;;;61.90;21.60;;;;;;;-128.00;-1.00;-1.00;100323;1283;1003341;-29
2024/01/23 10:03:48;;;;;;;46.20;19.80;;;;;;;-128.00;-1.00;-1.00;100227;1283;1003533;-30
2024/01/23 10:06:15;;;;;;;42.90;16.30;;;;;;;-128.00;-1.00;-1.00;100339;1282;1055114;-29
2024/01/23 10:08:41;;;;;;;27.40;9.90;;;;;;;-128.00;-1.00;-1.00;100194;1282;1003107;-31
2024/01/23 10:11:07;;;;;;;17.50;5.20;;;;;;;-128.00;-1.00;-1.00;100279;1283;1002333;-32
2024/01/23 10:13:33;;;;;;;21.00;7.80;;;;;;;-128.00;-1.00;-1.00;100336;1285;1003450;-32
2024/01/23 10:15:58;;;;;;;15.70;4.80;;;;;;;-128.00;-1.00;-1.00;100320;1281;1003964;-31
2024/01/23 10:18:25;;;;;;;12.30;4.50;;;;;;;-128.00;-1.00;-1.00;100280;1283;1056609;-30
2024/01/23 10:20:50;;;;;;;16.00;4.60;;;;;;;-128.00;-1.00;-1.00;100219;1283;1003097;-30
2024/01/23 10:23:16;;;;;;;26.40;7.70;;;;;;;-128.00;-1.00;-1.00;100384;1282;1003486;-34
2024/01/23 10:25:42;;;;;;;19.50;5.40;;;;;;;-128.00;-1.00;-1.00;100310;1283;1045755;-31
2024/01/23 10:28:13;;;;;;;16.70;6.00;;;;;;;-128.00;-1.00;-1.00;100296;1285;1004013;-30
2024/01/23 10:30:40;;;;;;;24.80;5.80;;;;;;;-128.00;-1.00;-1.00;100291;1282;1056081;-31
2024/01/23 10:33:06;;;;;;;21.90;6.90;;;;;;;-128.00;-1.00;-1.00;100267;1283;1003185;-31
2024/01/23 10:35:35;;;;;;;13.70;2.30;;;;;;;-128.00;-1.00;-1.00;100332;1283;1002971;-29
2024/01/23 10:38:08;;;;;;;11.40;3.70;;;;;;;-128.00;-1.00;-1.00;100340;1285;1039466;-30
2024/01/23 10:40:33;;;;;;;26.90;6.30;;;;;;;-128.00;-1.00;-1.00;100300;1283;1045627;-30
2024/01/23 10:42:59;;;;;;;15.70;4.10;;;;;;;-128.00;-1.00;-1.00;100274;1283;1002562;-30
2024/01/23 10:45:25;;;;;;;19.30;4.30;;;;;;;-128.00;-1.00;-1.00;100301;1283;1003251;-31
2024/01/23 10:47:56;;;;;;;14.50;2.90;;;;;;;-128.00;-1.00;-1.00;100304;1282;1013102;-35
2024/01/23 10:50:22;;;;;;;14.60;4.50;;;;;;;-128.00;-1.00;-1.00;100419;1285;1039294;-31
2024/01/23 10:52:49;;;;;;;14.70;3.60;;;;;;;-128.00;-1.00;-1.00;100348;1283;1002827;-33
2024/01/23 10:55:16;;;;;;;8.50;2.20;;;;;;;-128.00;-1.00;-1.00;100329;1283;1003078;-32
2024/01/23 10:57:48;;;;;;;11.90;3.80;;;;;;;-128.00;-1.00;-1.00;100318;1282;1004991;-32
2024/01/23 11:00:16;;;;;;;6.80;2.10;;;;;;;-128.00;-1.00;-1.00;100261;1282;1058169;-31
2024/01/23 11:02:45;;;;;;;13.30;3.20;;;;;;;-128.00;-1.00;-1.00;100323;1285;1004027;-30
2024/01/23 11:05:11;;;;;;;17.10;5.60;;;;;;;-128.00;-1.00;-1.00;100337;1283;1039857;-31
2024/01/23 11:07:57;;;;;;;8.00;2.60;;;;;;;-128.00;-1.00;-1.00;100339;1283;1004334;-32
2024/01/23 11:10:38;;;;;;;9.10;3.20;;;;;;;-128.00;-1.00;-1.00;100316;1283;1060707;-32
2024/01/23 11:13:20;;;;;;;9.40;1.80;;;;;;;-128.00;-1.00;-1.00;100323;1283;1056573;-32
2024/01/23 11:15:47;;;;;;;9.70;3.60;;;;;;;-128.00;-1.00;-1.00;100344;1283;1058777;-32
2024/01/23 11:18:28;;;;;;;15.10;3.60;;;;;;;-128.00;-1.00;-1.00;100197;1283;1003401;-30
2024/01/23 11:21:11;;;;;;;4.50;1.70;;;;;;;-128.00;-1.00;-1.00;100368;1283;1039326;-33
2024/01/23 11:23:39;;;;;;;6.70;2.20;;;;;;;-128.00;-1.00;-1.00;100283;1283;1046300;-34
2024/01/23 11:26:18;;;;;;;12.90;3.40;;;;;;;-128.00;-1.00;-1.00;100219;1283;1059678;-30
2024/01/23 11:28:46;;;;;;;6.40;1.50;;;;;;;-128.00;-1.00;-1.00;100282;1282;1056589;-33
2024/01/23 11:31:20;;;;;;;7.10;1.60;;;;;;;-128.00;-1.00;-1.00;100284;1285;1002794;-34
2024/01/23 11:33:46;;;;;;;6.60;1.70;;;;;;;-128.00;-1.00;-1.00;100339;1283;1013329;-34
2024/01/23 11:36:31;;;;;;;2.00;0.90;;;;;;;-128.00;-1.00;-1.00;100343;1285;1003196;-33
2024/01/23 11:38:58;;;;;;;5.50;1.80;;;;;;;-128.00;-1.00;-1.00;100290;1282;1048279;-33
2024/01/23 11:41:24;;;;;;;5.40;1.70;;;;;;;-128.00;-1.00;-1.00;100361;1283;1003061;-33
2024/01/23 11:43:54;;;;;;;6.90;1.70;;;;;;;-128.00;-1.00;-1.00;100291;1283;1004850;-31
2024/01/23 11:46:22;;;;;;;5.80;2.40;;;;;;;-128.00;-1.00;-1.00;100287;1282;1059304;-30
2024/01/23 11:48:48;;;;;;;5.10;1.50;;;;;;;-128.00;-1.00;-1.00;100303;1283;1002934;-31